< < Back
Terminal Aerodrome Forecast


Current Version              Previous Versions:   1  2  3  4  5  6  7  8  9  

Terminal Aerodrome Forecast

924
FTUS42 KFFC 202331
TAFPDK
TAF
KPDK 202331Z 2100/2124 28010G18KT P6SM SCT050 SCT100
     FM210300 31009KT P6SM FEW050
     FM211500 31010G15KT P6SM FEW250
     FM212000 29009KT P6SM FEW050
     FM212300 27005KT P6SM SCT250=

Latest METAR

282
SAUS70 KWBC 211400 RRA
MTRPDK
METAR KPDK 211353Z 31009KT 10SM CLR 16/04 A2998 RMK AO2 SLP148
T01560044


USA.gov is the U.S. government's official web portal to all federal, state and local government web resources and services.